עמוד ראשי
METAR-TAF:

METAR-TAF

שדות תעופה :

סביליה, ספרד

קו רוחב: 37-25N, קו אורך: 005-54W, גובה: 34מטר

תצפית מזג אוויר נוכחית

הדו"ח נערך לפני 17דקות, בשעה 00:00 UTC
רוח 4קשר מכיוון דרום-מערב, משתנה בין דרום ו מערב
טמפרטורת 20 צלסיוס
לחות 64%
לחץ 1014 hPa
ראות 10 קילומטר או יותר
ללא עננים שבסיסם נמוך מ 5000 רגל או קומולונימבוס

METAR: LEZL 160000Z AUTO 22004KT 170V280 CAVOK 20/13 Q1014

זמן: 02:17 (00:17 UTC)

תחזית

הדו"ח נערך לפני 4 שעות ו 17דקות, בשעה 20:00 UTC
תחזית בתוקף מ 15 ב 21 UTC עד 16 ב 21 UTC
רוח 10קשר מכיוון מערב/דרום-מערב
ראות 10 קילומטר או יותר
ללא עננים שבסיסם נמוך מ 5000 רגל או קומולונימבוס
יעשה מ
15 ב 22 UTC עד 15 ב 24 UTC
רוח 2קשר עם כיוונים משתנים
יעשה מ
16 ב 16 UTC עד 16 ב 18 UTC
רוח 10קשר מכיוון דרום-מערב

TAF: LEZL 152000Z 1521/1621 25010KT CAVOK TX32/1615Z TN18/1605Z BECMG 1522/1524 VRB02KT BECMG 1616/1618 23010KT

תצפיות ותחזיות מזג אוויר לגבי יותר מ- 4,000 שדות תעופה ברחבי העולם. דוחות METAR ו- TAF.

התחנות הזמינות מסומנות בנקודות צהובות ואדומות על גבי המפה.

העבר את העכבר לנקודה הצבעונית על מנת לראות את שם התחנה.

לאחר מכן, לחץ כדי לראות את תוכן ואת תחזיות מזג האוויר.

כדי לשנות את המפה: לחץ על הכפתורים הירוקים עם הפלוס השחור כדי להתקרב; על הכפתור הירוק עם המקף כדי להתרחק; או בחיצים הירוקים למפות סמוכות.


METAR-TAF: